createdAt,value
2018-09-25T00:02:17.687Z,5.30
2018-09-25T00:04:51.923Z,5.30
2018-09-25T00:07:28.470Z,5.30
2018-09-25T00:10:02.786Z,5.30
2018-09-25T00:12:37.311Z,5.30
2018-09-25T00:15:11.713Z,5.30
2018-09-25T00:17:46.555Z,5.20
2018-09-25T00:20:21.016Z,5.10
2018-09-25T00:22:56.218Z,5.00
2018-09-25T00:25:31.109Z,4.90
2018-09-25T00:28:05.961Z,4.80
2018-09-25T00:30:40.470Z,4.70
2018-09-25T00:33:15.992Z,4.60
2018-09-25T00:35:50.409Z,4.60
2018-09-25T00:38:25.079Z,4.60
2018-09-25T00:40:59.537Z,4.60
2018-09-25T00:43:34.980Z,4.60
2018-09-25T00:53:17.436Z,4.60
2018-09-25T00:55:53.201Z,4.40
2018-09-25T00:58:27.626Z,4.40
2018-09-25T01:01:04.330Z,4.30
2018-09-25T01:03:38.562Z,4.20
2018-09-25T01:06:13.335Z,4.10
2018-09-25T01:08:47.839Z,4.10
2018-09-25T01:11:22.847Z,4.00
2018-09-25T01:13:57.219Z,4.00
2018-09-25T01:16:32.164Z,4.00
2018-09-25T01:19:06.610Z,4.00
2018-09-25T01:21:41.192Z,4.00
2018-09-25T01:24:15.608Z,4.00
2018-09-25T01:26:50.122Z,4.00
2018-09-25T01:29:24.624Z,4.00
2018-09-25T01:32:01.431Z,4.00
2018-09-25T01:34:35.875Z,4.00
2018-09-25T01:37:10.801Z,4.00
2018-09-25T01:39:45.218Z,4.00
2018-09-25T01:42:21.926Z,3.90
2018-09-25T01:44:56.180Z,3.90
2018-09-25T01:47:31.202Z,3.90
2018-09-25T01:50:05.445Z,3.90
2018-09-25T01:52:40.018Z,3.90
2018-09-25T01:55:14.656Z,3.90
2018-09-25T01:57:49.891Z,3.90
2018-09-25T02:00:24.608Z,3.90
2018-09-25T02:03:01.780Z,3.80
2018-09-25T02:05:36.243Z,3.80
2018-09-25T02:08:11.667Z,3.70
2018-09-25T02:10:46.227Z,3.60
2018-09-25T02:13:20.944Z,3.60
2018-09-25T02:15:55.459Z,3.50
2018-09-25T02:18:29.988Z,3.50
2018-09-25T02:21:04.527Z,3.50
2018-09-25T02:23:39.382Z,3.60
2018-09-25T02:26:14.128Z,3.50
2018-09-25T02:28:49.396Z,3.50
2018-09-25T02:31:23.733Z,3.40
2018-09-25T02:33:59.621Z,3.40
2018-09-25T02:36:33.757Z,3.40
2018-09-25T02:39:12.379Z,3.30
2018-09-25T02:41:47.275Z,3.30
2018-09-25T02:44:22.211Z,3.30
2018-09-25T02:46:57.142Z,3.20
2018-09-25T02:49:31.641Z,3.20
2018-09-25T02:52:06.195Z,3.20
2018-09-25T02:54:40.987Z,3.30
2018-09-25T02:57:15.407Z,3.20
2018-09-25T02:59:51.374Z,3.20
2018-09-25T03:02:25.826Z,3.20
2018-09-25T03:05:01.063Z,3.20
2018-09-25T03:07:35.308Z,3.20
2018-09-25T03:10:10.486Z,3.20
2018-09-25T03:12:45.227Z,3.10
2018-09-25T03:15:22.096Z,3.10
2018-09-25T03:17:56.603Z,3.00
2018-09-25T03:20:32.208Z,3.00
2018-09-25T03:23:06.779Z,3.00
2018-09-25T03:25:42.287Z,3.00
2018-09-25T03:28:16.813Z,3.00
2018-09-25T03:30:52.373Z,3.10
2018-09-25T03:33:27.050Z,3.00
2018-09-25T03:36:03.392Z,3.00
2018-09-25T03:38:38.058Z,3.00
2018-09-25T03:41:13.502Z,2.90
2018-09-25T03:43:48.241Z,2.90
2018-09-25T03:46:23.704Z,2.90
2018-09-25T03:48:58.380Z,2.90
2018-09-25T03:51:34.342Z,2.90
2018-09-25T03:54:09.240Z,3.00
2018-09-25T03:56:44.538Z,3.10
2018-09-25T03:59:18.912Z,3.10
2018-09-25T04:01:53.603Z,3.10
2018-09-25T04:04:28.156Z,3.20
2018-09-25T04:07:03.346Z,3.30
2018-09-25T04:09:37.752Z,3.40
2018-09-25T04:12:13.061Z,3.40
2018-09-25T04:14:47.719Z,3.40
2018-09-25T04:17:22.404Z,3.40
2018-09-25T04:19:57.019Z,3.30
2018-09-25T04:22:31.971Z,3.20
2018-09-25T04:25:06.217Z,3.10
2018-09-25T04:27:43.742Z,3.00
2018-09-25T04:30:18.378Z,2.90
2018-09-25T04:32:53.692Z,2.90
2018-09-25T04:35:28.176Z,2.90
2018-09-25T04:38:03.286Z,2.90
2018-09-25T04:40:37.923Z,2.80
2018-09-25T04:43:13.520Z,2.80
2018-09-25T04:45:47.968Z,2.70
2018-09-25T04:48:22.782Z,2.70
2018-09-25T04:50:57.303Z,2.60
2018-09-25T04:53:32.863Z,2.60
2018-09-25T04:56:07.222Z,2.50
2018-09-25T04:58:42.219Z,2.50
2018-09-25T05:01:16.758Z,2.50
2018-09-25T05:03:51.504Z,2.50
2018-09-25T05:06:26.041Z,2.60
2018-09-25T05:09:01.115Z,2.70
2018-09-25T05:11:35.518Z,2.80
2018-09-25T05:14:10.211Z,2.70
2018-09-25T05:16:44.696Z,2.70
2018-09-25T05:19:19.654Z,2.60
2018-09-25T05:21:54.095Z,2.60
2018-09-25T05:24:29.000Z,2.60
2018-09-25T05:27:03.412Z,2.70
2018-09-25T05:29:38.938Z,2.70
2018-09-25T05:32:13.565Z,2.70
2018-09-25T05:34:49.392Z,2.80
2018-09-25T05:37:23.942Z,2.90
2018-09-25T05:39:59.386Z,3.10
2018-09-25T05:42:33.771Z,3.50
2018-09-25T05:45:08.611Z,3.60
2018-09-25T05:47:43.240Z,3.50
2018-09-25T05:50:18.017Z,3.50
2018-09-25T05:52:52.553Z,3.40
2018-09-25T05:55:28.793Z,3.50
2018-09-25T05:58:03.324Z,3.80
2018-09-25T06:00:39.224Z,4.00
2018-09-25T06:03:14.062Z,4.10
2018-09-25T06:05:49.136Z,4.10
2018-09-25T06:08:23.601Z,4.10
2018-09-25T06:10:58.916Z,4.30
2018-09-25T06:13:33.323Z,4.50
2018-09-25T06:16:07.879Z,4.90
2018-09-25T06:18:42.313Z,5.30
2018-09-25T06:21:18.993Z,5.50
2018-09-25T06:23:53.434Z,5.80
2018-09-25T06:26:29.919Z,6.10
2018-09-25T06:29:04.400Z,6.80
2018-09-25T06:31:39.591Z,7.40
2018-09-25T06:34:13.909Z,7.50
2018-09-25T06:36:49.675Z,7.60
2018-09-25T06:39:23.927Z,8.20
2018-09-25T06:41:59.061Z,8.80
2018-09-25T06:44:33.800Z,9.30
2018-09-25T06:47:08.771Z,9.80
2018-09-25T06:49:43.839Z,10.10
2018-09-25T06:52:19.090Z,10.40
2018-09-25T06:54:54.073Z,11.10
2018-09-25T06:57:29.237Z,11.70
2018-09-25T07:00:04.185Z,12.00
2018-09-25T07:02:39.408Z,12.00
2018-09-25T07:05:13.941Z,12.30
2018-09-25T07:07:50.913Z,12.50
2018-09-25T07:10:25.697Z,12.70
2018-09-25T07:13:01.990Z,12.70
2018-09-25T07:15:36.764Z,12.60
2018-09-25T07:18:12.703Z,12.70
2018-09-25T07:20:47.594Z,12.90
2018-09-25T07:23:22.450Z,13.00
2018-09-25T07:25:56.901Z,13.20
2018-09-25T07:28:33.248Z,13.50
2018-09-25T07:31:08.035Z,13.80
2018-09-25T07:33:43.297Z,13.70
2018-09-25T07:36:17.786Z,13.70
2018-09-25T07:38:54.252Z,13.10
2018-09-25T07:41:29.014Z,12.30
2018-09-25T07:44:03.802Z,11.90
2018-09-25T07:46:38.269Z,12.20
2018-09-25T07:49:15.689Z,12.70
2018-09-25T07:51:50.097Z,13.10
2018-09-25T07:54:25.311Z,13.40
2018-09-25T07:56:59.838Z,13.90
2018-09-25T07:59:35.183Z,14.40
2018-09-25T08:02:09.701Z,15.50
2018-09-25T08:04:44.982Z,16.60
2018-09-25T08:07:19.702Z,18.40
2018-09-25T08:09:55.125Z,20.50
2018-09-25T08:12:30.183Z,22.60
2018-09-25T08:15:05.325Z,24.20
2018-09-25T08:17:39.900Z,24.90
2018-09-25T08:20:14.798Z,25.80
2018-09-25T08:22:49.958Z,26.60
2018-09-25T08:25:27.569Z,27.30
2018-09-25T08:28:02.846Z,27.10
2018-09-25T08:30:38.268Z,27.80
2018-09-25T08:33:13.012Z,28.50
2018-09-25T08:35:48.499Z,29.10
2018-09-25T08:38:23.336Z,29.70
2018-09-25T08:40:59.145Z,30.40
2018-09-25T08:43:33.723Z,31.00
2018-09-25T08:46:09.708Z,30.90
2018-09-25T08:48:44.408Z,31.40
2018-09-25T08:51:19.541Z,31.80
2018-09-25T08:53:54.593Z,32.00
2018-09-25T08:56:32.425Z,32.00
2018-09-25T08:59:07.263Z,31.80
2018-09-25T09:01:42.994Z,31.70
2018-09-25T09:04:17.540Z,31.00
2018-09-25T09:06:52.237Z,30.40
2018-09-25T09:09:27.396Z,29.70
2018-09-25T09:12:02.395Z,28.70
2018-09-25T09:14:37.273Z,28.80
2018-09-25T09:17:12.628Z,29.10
2018-09-25T09:19:47.388Z,29.60
2018-09-25T09:22:23.183Z,29.90
2018-09-25T09:24:57.763Z,30.30
2018-09-25T09:27:34.195Z,30.80
2018-09-25T09:30:09.276Z,30.40
2018-09-25T09:32:45.002Z,30.50
2018-09-25T09:35:19.661Z,31.30
2018-09-25T09:37:54.570Z,32.20
2018-09-25T09:40:29.143Z,32.60
2018-09-25T09:43:03.998Z,33.10
2018-09-25T09:45:38.674Z,33.70
2018-09-25T09:48:13.356Z,34.00
2018-09-25T09:50:48.006Z,33.90
2018-09-25T09:53:23.230Z,33.10
2018-09-25T09:55:57.760Z,32.60
2018-09-25T09:58:33.064Z,32.50
2018-09-25T10:01:07.659Z,32.20
2018-09-25T10:03:43.650Z,32.40
2018-09-25T10:06:19.068Z,32.30
2018-09-25T10:08:54.401Z,32.30
2018-09-25T10:11:29.044Z,31.80
2018-09-25T10:14:05.385Z,31.90
2018-09-25T10:16:39.844Z,32.00
2018-09-25T10:19:14.891Z,32.30
2018-09-25T10:21:50.588Z,32.60
2018-09-25T10:24:25.490Z,32.00
2018-09-25T10:26:59.939Z,31.70
2018-09-25T10:29:34.752Z,31.80
2018-09-25T10:32:09.183Z,32.00
2018-09-25T10:34:45.054Z,32.40
2018-09-25T10:37:19.542Z,32.70
2018-09-25T10:39:54.969Z,32.80
2018-09-25T10:42:29.572Z,32.70
2018-09-25T10:45:05.376Z,31.90
2018-09-25T10:47:40.346Z,31.20
2018-09-25T10:50:15.638Z,31.30
2018-09-25T10:52:49.993Z,31.60
2018-09-25T10:55:25.344Z,31.80
2018-09-25T10:57:59.795Z,32.00
2018-09-25T11:00:34.622Z,32.30
2018-09-25T11:03:09.432Z,32.80
2018-09-25T11:05:44.764Z,33.40
2018-09-25T11:08:19.412Z,33.50
2018-09-25T11:10:54.638Z,32.70
2018-09-25T11:13:29.172Z,30.80
2018-09-25T11:16:05.012Z,29.40
2018-09-25T11:18:39.448Z,28.10
2018-09-25T11:21:16.377Z,26.00
2018-09-25T11:23:50.997Z,24.30
2018-09-25T11:26:25.797Z,23.00
2018-09-25T11:29:00.354Z,21.30
2018-09-25T11:31:35.953Z,20.10
2018-09-25T11:34:10.572Z,19.40
2018-09-25T11:36:45.987Z,19.00
2018-09-25T11:39:20.516Z,19.60
2018-09-25T11:41:55.752Z,20.30
2018-09-25T11:44:30.680Z,21.50
2018-09-25T11:47:05.665Z,22.90
2018-09-25T11:49:40.039Z,23.90
2018-09-25T11:52:15.995Z,24.50
2018-09-25T11:54:50.688Z,24.40
2018-09-25T11:57:25.816Z,23.20
2018-09-25T12:00:00.687Z,22.20
2018-09-25T12:02:36.288Z,21.60
2018-09-25T12:05:11.574Z,22.10
2018-09-25T12:07:48.164Z,23.00
2018-09-25T12:10:23.203Z,23.60
2018-09-25T12:12:58.271Z,23.70
2018-09-25T12:15:33.789Z,23.80
2018-09-25T12:18:08.919Z,23.40
2018-09-25T12:20:43.883Z,23.00
2018-09-25T12:23:19.438Z,21.80
2018-09-25T12:25:54.757Z,20.20
2018-09-25T12:28:30.855Z,19.50
2018-09-25T12:31:05.950Z,18.50
2018-09-25T12:33:42.563Z,18.00
2018-09-25T12:36:17.127Z,18.00
2018-09-25T12:38:52.835Z,18.00
2018-09-25T12:41:27.877Z,17.40
2018-09-25T12:44:03.193Z,17.70
2018-09-25T12:46:38.293Z,18.60
2018-09-25T12:49:13.585Z,19.30
2018-09-25T12:51:48.987Z,19.70
2018-09-25T12:54:23.697Z,19.90
2018-09-25T12:56:58.196Z,20.00
2018-09-25T12:59:32.967Z,19.60
2018-09-25T13:02:07.437Z,18.90
2018-09-25T13:04:42.600Z,18.80
2018-09-25T13:07:17.288Z,18.50
2018-09-25T13:09:52.624Z,18.20
2018-09-25T13:12:27.193Z,18.00
2018-09-25T13:15:04.546Z,17.90
2018-09-25T13:17:39.301Z,18.30
2018-09-25T13:20:15.010Z,18.80
2018-09-25T13:22:49.535Z,19.40
2018-09-25T13:25:25.055Z,19.80
2018-09-25T13:27:59.697Z,20.00
2018-09-25T13:30:36.397Z,19.50
2018-09-25T13:33:11.138Z,19.40
2018-09-25T13:35:46.574Z,19.30
2018-09-25T13:38:21.176Z,18.30
2018-09-25T13:40:58.197Z,17.20
2018-09-25T13:43:32.660Z,16.60
2018-09-25T13:46:07.785Z,16.70
2018-09-25T13:48:42.536Z,17.20
2018-09-25T13:51:17.431Z,17.00
2018-09-25T13:53:52.043Z,17.10
2018-09-25T13:56:28.184Z,16.90
2018-09-25T13:59:02.815Z,16.70
2018-09-25T14:01:39.175Z,16.90
2018-09-25T14:04:13.612Z,17.50
2018-09-25T14:06:48.803Z,18.10
2018-09-25T14:09:23.752Z,17.60
2018-09-25T14:11:59.031Z,17.20
2018-09-25T14:14:34.203Z,16.80
2018-09-25T14:17:10.049Z,16.60
2018-09-25T14:19:45.047Z,16.40
2018-09-25T14:22:20.093Z,16.00
2018-09-25T14:24:54.938Z,15.90
2018-09-25T14:27:31.363Z,16.00
2018-09-25T14:30:06.820Z,16.00
2018-09-25T14:32:42.044Z,15.60
2018-09-25T14:35:16.938Z,15.30
2018-09-25T14:37:51.732Z,15.10
2018-09-25T14:40:26.365Z,15.20
2018-09-25T14:43:01.275Z,15.20
2018-09-25T14:45:35.728Z,15.50
2018-09-25T14:48:11.270Z,15.60
2018-09-25T14:50:45.854Z,15.60
2018-09-25T14:53:21.808Z,15.40
2018-09-25T14:55:56.456Z,15.20
2018-09-25T14:58:31.447Z,15.20
2018-09-25T15:01:06.155Z,15.40
2018-09-25T15:03:42.713Z,15.60
2018-09-25T15:06:17.166Z,15.80
2018-09-25T15:08:52.409Z,16.00
2018-09-25T15:11:27.221Z,15.90
2018-09-25T15:14:02.485Z,15.90
2018-09-25T15:16:36.910Z,15.80
2018-09-25T15:19:13.385Z,15.70
2018-09-25T15:21:48.098Z,15.60
2018-09-25T15:24:23.642Z,15.50
2018-09-25T15:26:58.217Z,15.40
2018-09-25T15:29:33.263Z,15.30
2018-09-25T15:32:08.076Z,15.20
2018-09-25T15:34:43.200Z,15.10
2018-09-25T15:37:17.854Z,15.10
2018-09-25T15:39:55.097Z,15.00
2018-09-25T15:42:30.202Z,15.00
2018-09-25T15:45:05.273Z,14.90
2018-09-25T15:47:40.053Z,14.80
2018-09-25T15:50:15.534Z,14.70
2018-09-25T15:52:50.099Z,14.50
2018-09-25T15:55:25.365Z,14.50
2018-09-25T15:57:59.997Z,14.40
2018-09-25T16:00:35.466Z,14.40
2018-09-25T16:03:10.072Z,14.40
2018-09-25T16:05:45.505Z,14.30
2018-09-25T16:08:20.288Z,14.20
2018-09-25T16:10:55.368Z,14.10
2018-09-25T16:13:30.034Z,14.00
2018-09-25T16:16:06.314Z,13.90
2018-09-25T16:18:40.973Z,13.90
2018-09-25T16:21:16.007Z,13.90
2018-09-25T16:23:50.845Z,13.80
2018-09-25T16:26:26.349Z,13.80
2018-09-25T16:29:01.063Z,13.70
2018-09-25T16:31:36.521Z,13.60
2018-09-25T16:34:11.044Z,13.40
2018-09-25T16:36:45.968Z,13.30
2018-09-25T16:39:20.808Z,13.20
2018-09-25T16:41:58.758Z,13.00
2018-09-25T16:44:33.704Z,12.90
2018-09-25T16:47:09.407Z,12.80
2018-09-25T16:49:44.872Z,12.70
2018-09-25T16:52:21.080Z,12.70
2018-09-25T16:54:55.823Z,12.60
2018-09-25T16:57:32.379Z,12.60
2018-09-25T17:00:07.235Z,12.60
2018-09-25T17:02:43.700Z,12.60
2018-09-25T17:05:18.312Z,12.50
2018-09-25T17:07:53.410Z,12.40
2018-09-25T17:10:27.902Z,12.30
2018-09-25T17:13:02.662Z,12.20
2018-09-25T17:15:37.241Z,12.10
2018-09-25T17:18:13.708Z,12.00
2018-09-25T17:20:48.260Z,12.00
2018-09-25T17:23:24.762Z,11.80
2018-09-25T17:25:59.229Z,11.80
2018-09-25T17:28:34.794Z,11.80
2018-09-25T17:31:09.560Z,11.80
2018-09-25T17:33:44.971Z,11.70
2018-09-25T17:36:19.953Z,11.60
2018-09-25T17:38:56.891Z,11.50
2018-09-25T17:41:31.567Z,11.30
2018-09-25T17:44:06.799Z,11.10
2018-09-25T17:46:41.322Z,11.10
2018-09-25T17:49:18.305Z,11.00
2018-09-25T17:51:52.883Z,10.80
2018-09-25T17:54:28.340Z,10.70
2018-09-25T17:57:03.209Z,10.50
2018-09-25T17:59:38.434Z,10.30
2018-09-25T18:02:13.438Z,10.20
2018-09-25T18:04:48.406Z,10.00
2018-09-25T18:07:22.994Z,9.90
2018-09-25T18:09:58.281Z,9.70
2018-09-25T18:12:33.753Z,9.60
2018-09-25T18:15:09.674Z,9.50
2018-09-25T18:17:44.366Z,9.40
2018-09-25T18:20:20.722Z,9.40
2018-09-25T18:22:55.465Z,9.30
2018-09-25T18:25:30.299Z,9.20
2018-09-25T18:28:04.835Z,9.20
2018-09-25T18:30:40.985Z,9.20
2018-09-25T18:33:17.164Z,9.30
2018-09-25T18:35:53.460Z,9.30
2018-09-25T18:38:28.187Z,9.20
2018-09-25T18:41:03.812Z,9.20
2018-09-25T18:43:39.384Z,9.10
2018-09-25T18:46:16.468Z,9.20
2018-09-25T18:48:51.770Z,9.10
2018-09-25T18:51:26.736Z,8.90
2018-09-25T18:54:01.902Z,8.70
2018-09-25T18:56:36.982Z,8.60
2018-09-25T18:59:12.133Z,8.50
2018-09-25T19:01:47.265Z,8.40
2018-09-25T19:04:21.864Z,8.30
2018-09-25T19:06:57.258Z,8.20
2018-09-25T19:09:31.823Z,8.20
2018-09-25T19:12:06.697Z,8.10
2018-09-25T19:14:41.578Z,8.00
2018-09-25T19:17:18.127Z,8.00
2018-09-25T19:19:52.796Z,7.90
2018-09-25T19:22:28.865Z,7.80
2018-09-25T19:25:03.382Z,7.70
2018-09-25T19:27:38.626Z,7.60
2018-09-25T19:30:13.228Z,7.40
2018-09-25T19:32:49.079Z,7.30
2018-09-25T19:35:23.524Z,7.20
2018-09-25T19:37:58.124Z,7.10
2018-09-25T19:40:32.718Z,7.00
2018-09-25T19:43:07.345Z,7.00
2018-09-25T19:45:42.188Z,6.90
2018-09-25T19:48:17.131Z,6.90
2018-09-25T19:50:51.730Z,6.90
2018-09-25T19:53:27.120Z,6.90
2018-09-25T19:56:01.686Z,6.90
2018-09-25T19:58:36.972Z,6.90
2018-09-25T20:01:11.683Z,6.80
2018-09-25T20:03:46.686Z,6.80
2018-09-25T20:06:21.328Z,6.80
2018-09-25T20:08:56.953Z,6.80
2018-09-25T20:11:31.316Z,6.80
2018-09-25T20:14:06.752Z,6.80
2018-09-25T20:16:41.265Z,6.70
2018-09-25T20:19:16.716Z,6.60
2018-09-25T20:21:51.523Z,6.50
2018-09-25T20:24:27.686Z,6.50
2018-09-25T20:27:02.320Z,6.40
2018-09-25T20:29:37.199Z,6.30
2018-09-25T20:32:12.028Z,6.30
2018-09-25T20:34:46.986Z,6.10
2018-09-25T20:39:56.303Z,6.00
2018-09-25T20:42:31.099Z,5.90
2018-09-25T20:45:06.806Z,5.90
2018-09-25T20:47:41.342Z,5.80
2018-09-25T20:50:16.171Z,5.70
2018-09-25T20:52:50.764Z,5.60
2018-09-25T20:55:26.021Z,5.50
2018-09-25T20:58:00.949Z,5.50
2018-09-25T21:00:35.551Z,5.50
2018-09-25T21:03:10.144Z,5.40
2018-09-25T21:05:46.668Z,5.40
2018-09-25T21:08:21.936Z,5.50
2018-09-25T21:10:56.851Z,5.50
2018-09-25T21:13:31.786Z,5.40
2018-09-25T21:16:07.563Z,5.40
2018-09-25T21:18:41.941Z,5.40
2018-09-25T21:21:17.241Z,5.30
2018-09-25T21:23:52.051Z,5.30
2018-09-25T21:26:26.594Z,5.20
2018-09-25T21:29:01.181Z,5.20
2018-09-25T21:31:36.527Z,5.20
2018-09-25T21:34:11.164Z,5.10
2018-09-25T21:36:46.714Z,5.10
2018-09-25T21:39:21.377Z,5.00
2018-09-25T21:41:56.428Z,5.00
2018-09-25T21:44:30.876Z,4.90
2018-09-25T21:47:07.164Z,4.80
2018-09-25T21:49:41.906Z,4.80
2018-09-25T21:52:17.133Z,4.80
2018-09-25T21:54:51.594Z,4.70
2018-09-25T21:57:27.177Z,4.70
2018-09-25T22:00:07.881Z,4.70
2018-09-25T22:02:42.584Z,4.70
2018-09-25T22:05:17.085Z,4.70
2018-09-25T22:07:52.134Z,4.70
2018-09-25T22:10:26.563Z,4.60
2018-09-25T22:13:01.403Z,4.60
2018-09-25T22:15:36.009Z,4.60
2018-09-25T22:18:11.956Z,4.60
2018-09-25T22:20:46.431Z,4.60
2018-09-25T22:23:22.258Z,4.50
2018-09-25T22:25:56.743Z,4.50
2018-09-25T22:28:32.447Z,4.50
2018-09-25T22:31:06.770Z,4.50
2018-09-25T22:33:43.824Z,4.50
2018-09-25T22:36:18.914Z,4.50
2018-09-25T22:38:54.418Z,4.40
2018-09-25T22:41:28.940Z,4.40
2018-09-25T22:44:05.083Z,4.50
2018-09-25T22:46:39.786Z,4.50
2018-09-25T22:49:14.948Z,4.50
2018-09-25T22:51:49.390Z,4.50
2018-09-25T22:54:24.489Z,4.40
2018-09-25T22:56:59.398Z,4.40
2018-09-25T22:59:35.308Z,4.40
2018-09-25T23:02:10.577Z,4.40
2018-09-25T23:04:45.945Z,4.30
2018-09-25T23:07:20.630Z,4.20
2018-09-25T23:09:55.568Z,4.10
2018-09-25T23:12:30.202Z,4.00
2018-09-25T23:15:05.492Z,4.00
2018-09-25T23:17:39.962Z,4.00
2018-09-25T23:20:15.253Z,4.00
2018-09-25T23:22:49.740Z,3.90
2018-09-25T23:25:25.720Z,3.90
2018-09-25T23:28:00.288Z,3.80
2018-09-25T23:30:35.139Z,3.80
2018-09-25T23:33:09.569Z,3.70
2018-09-25T23:35:45.223Z,3.70
2018-09-25T23:38:19.687Z,3.60
2018-09-25T23:41:06.202Z,3.60
2018-09-25T23:43:43.788Z,3.50
2018-09-25T23:46:30.622Z,3.50
2018-09-25T23:49:06.604Z,3.50
2018-09-25T23:51:45.316Z,3.40
2018-09-25T23:54:20.393Z,3.40
2018-09-25T23:56:54.611Z,3.40
2018-09-25T23:59:27.125Z,3.40
